Time;durP1;ratioP1;P1;durP2;ratioP2;P2;SDS_P1;SDS_P2;PMS_P1;PMS_P2;Temp;Humidity;BMP_temperature;BMP_pressure;BME280_temperature;BME280_humidity;BME280_pressure;Samples;Min_cycle;Max_cycle;Signal;HPM_P1;HPM_P2
2022/10/21 00:01:35;;;;;;;26.90;19.20;;;14.40;99.90;;;;;;5095683;28;20542;-58
2022/10/21 00:04:03;;;;;;;23.70;18.10;;;14.30;99.90;;;;;;5093911;28;20791;-58
2022/10/21 00:06:30;;;;;;;22.20;18.30;;;14.30;99.90;;;;;;5095474;28;20542;-57
2022/10/21 00:08:59;;;;;;;31.10;19.30;;;14.20;99.90;;;;;;5095851;28;20963;-58
2022/10/21 00:11:26;;;;;;;27.10;18.63;;;14.20;99.90;;;;;;5094355;28;20530;-58
2022/10/21 00:13:53;;;;;;;22.27;18.27;;;14.10;99.90;;;;;;5094797;28;20987;-57
2022/10/21 00:16:20;;;;;;;26.60;19.67;;;14.20;99.90;;;;;;5095826;28;20454;-58
2022/10/21 00:18:49;;;;;;;26.53;19.23;;;14.20;99.90;;;;;;5095035;28;20426;-58
2022/10/21 00:21:18;;;;;;;28.93;19.47;;;14.10;99.90;;;;;;5095661;28;20447;-57
2022/10/21 00:23:45;;;;;;;27.83;19.10;;;14.10;99.90;;;;;;5095242;28;20503;-57
2022/10/21 00:26:15;;;;;;;21.70;18.10;;;14.10;99.90;;;;;;5094384;28;21048;-58
2022/10/21 00:28:42;;;;;;;25.63;19.87;;;14.20;99.90;;;;;;5095445;28;20483;-58
2022/10/21 00:31:11;;;;;;;29.27;20.93;;;14.20;99.90;;;;;;5095748;28;20486;-58
2022/10/21 00:33:39;;;;;;;23.43;18.97;;;14.10;99.90;;;;;;5093576;28;20893;-58
2022/10/21 00:36:13;;;;;;;26.17;17.90;;;14.10;99.90;;;;;;5095640;28;20447;-58
2022/10/21 00:38:40;;;;;;;28.20;17.10;;;14.10;99.90;;;;;;5095320;28;20460;-58
2022/10/21 00:41:08;;;;;;;23.10;17.93;;;14.10;99.90;;;;;;5092394;28;20448;-58
2022/10/21 00:43:55;;;;;;;21.77;16.20;;;14.10;99.90;;;;;;5095225;28;20558;-58
2022/10/21 00:46:44;;;;;;;23.03;17.10;;;14.10;99.90;;;;;;5094868;28;20404;-57
2022/10/21 00:49:17;;;;;;;18.37;16.10;;;14.00;99.90;;;;;;5092867;28;20446;-58
2022/10/21 00:51:48;;;;;;;25.63;16.07;;;14.10;99.90;;;;;;5095164;28;20452;-58
2022/10/21 00:54:16;;;;;;;21.40;16.73;;;14.20;99.90;;;;;;5094841;28;21008;-58
2022/10/21 00:56:46;;;;;;;28.03;18.20;;;14.20;99.90;;;;;;5092950;28;20439;-58
2022/10/21 00:59:15;;;;;;;21.90;16.80;;;14.10;99.90;;;;;;5095228;28;20427;-58
2022/10/21 01:01:43;;;;;;;22.27;17.90;;;14.10;99.90;;;;;;5094824;28;20424;-58
2022/10/21 01:04:10;;;;;;;18.63;16.10;;;14.10;99.90;;;;;;5092916;28;20601;-57
2022/10/21 01:06:38;;;;;;;18.73;16.40;;;14.20;99.90;;;;;;5094712;28;20538;-58
2022/10/21 01:09:06;;;;;;;21.73;15.87;;;14.20;99.90;;;;;;5094553;28;20646;-60
2022/10/21 01:11:44;;;;;;;22.07;17.00;;;14.20;99.90;;;;;;5093168;28;20539;-58
2022/10/21 01:14:28;;;;;;;25.17;16.77;;;14.20;99.90;;;;;;5094558;28;20523;-58
2022/10/21 01:17:07;;;;;;;21.83;18.10;;;14.20;99.90;;;;;;5094593;28;20443;-58
2022/10/21 01:20:07;;;;;;;18.40;16.07;;;14.20;99.90;;;;;;5092683;28;20531;-58
2022/10/21 01:22:56;;;;;;;24.03;17.10;;;14.20;99.90;;;;;;5087993;28;20475;-58
2022/10/21 01:25:38;;;;;;;23.17;16.27;;;14.30;99.90;;;;;;5093203;28;20782;-57
2022/10/21 01:28:15;;;;;;;24.00;17.50;;;14.20;99.90;;;;;;5094576;28;20574;-58
2022/10/21 01:30:49;;;;;;;19.73;16.03;;;14.20;99.90;;;;;;5093920;28;20522;-58
2022/10/21 01:33:41;;;;;;;23.57;17.07;;;14.20;99.90;;;;;;5092345;28;20459;-58
2022/10/21 01:36:23;;;;;;;27.40;17.17;;;14.10;99.90;;;;;;5094106;28;20544;-58
2022/10/21 01:39:01;;;;;;;18.00;15.10;;;14.00;99.90;;;;;;5094603;28;20765;-58
2022/10/21 01:41:35;;;;;;;21.23;15.60;;;14.10;99.90;;;;;;5092513;28;20512;-58
2022/10/21 01:44:10;;;;;;;24.10;16.83;;;14.00;99.90;;;;;;5093957;28;20442;-58
2022/10/21 01:46:43;;;;;;;19.90;16.07;;;14.00;99.90;;;;;;5094181;28;20487;-58
2022/10/21 01:49:17;;;;;;;18.50;15.00;;;14.00;99.90;;;;;;5091606;28;20550;-58
2022/10/21 01:51:45;;;;;;;17.87;15.30;;;13.90;99.90;;;;;;5093456;28;20855;-58
2022/10/21 01:54:16;;;;;;;27.20;15.30;;;14.00;99.90;;;;;;5094188;28;20530;-58
2022/10/21 01:56:46;;;;;;;22.20;16.60;;;14.00;99.90;;;;;;5092003;28;20874;-58
2022/10/21 01:59:17;;;;;;;23.20;16.30;;;14.00;99.90;;;;;;5092509;28;20452;-58
2022/10/21 02:01:47;;;;;;;20.70;16.20;;;14.00;99.90;;;;;;5093769;28;20450;-58
2022/10/21 02:04:16;;;;;;;22.33;15.70;;;14.10;99.90;;;;;;5091491;28;20501;-58
2022/10/21 02:06:43;;;;;;;19.10;15.97;;;14.20;99.90;;;;;;5094012;28;20539;-58
2022/10/21 02:09:11;;;;;;;25.00;15.30;;;14.20;99.90;;;;;;5093586;28;20974;-58
2022/10/21 02:11:41;;;;;;;19.63;15.97;;;14.20;99.90;;;;;;5091445;28;20543;-58
2022/10/21 02:14:12;;;;;;;20.97;15.40;;;14.20;99.90;;;;;;5093488;28;20818;-58
2022/10/21 02:16:41;;;;;;;20.87;15.50;;;14.20;99.90;;;;;;5093688;28;20985;-58
2022/10/21 02:19:15;;;;;;;17.90;15.30;;;14.20;99.90;;;;;;5090876;28;20446;-58
2022/10/21 02:21:43;;;;;;;18.80;15.20;;;14.30;99.90;;;;;;5093431;28;20434;-58
2022/10/21 02:24:20;;;;;;;25.17;15.80;;;14.30;99.90;;;;;;5093594;28;20450;-58
2022/10/21 02:26:47;;;;;;;19.87;13.23;;;14.30;99.90;;;;;;5091170;28;20515;-58
2022/10/21 02:29:14;;;;;;;18.63;15.13;;;14.30;99.90;;;;;;5093256;28;20503;-58
2022/10/21 02:31:57;;;;;;;22.20;13.50;;;14.40;99.90;;;;;;5093600;28;20542;-58
2022/10/21 02:34:35;;;;;;;18.33;15.13;;;14.40;99.90;;;;;;5092610;28;20428;-58
2022/10/21 02:37:12;;;;;;;15.40;13.80;;;14.50;99.90;;;;;;5093385;28;20459;-58
2022/10/21 02:39:50;;;;;;;17.87;14.10;;;14.50;99.90;;;;;;5091384;28;20729;-58
2022/10/21 02:42:23;;;;;;;17.00;12.70;;;14.50;99.90;;;;;;5092923;28;21032;-58
2022/10/21 02:44:51;;;;;;;17.87;14.90;;;14.50;99.90;;;;;;5092852;28;20913;-58
2022/10/21 02:47:19;;;;;;;18.60;13.60;;;14.50;99.90;;;;;;5090726;28;20954;-58
2022/10/21 02:49:47;;;;;;;20.63;13.93;;;14.50;99.90;;;;;;5093116;28;20565;-58
2022/10/21 02:52:14;;;;;;;19.33;13.53;;;14.50;99.90;;;;;;5092922;28;20729;-58
2022/10/21 02:54:42;;;;;;;15.30;13.67;;;14.40;99.90;;;;;;5090815;28;20532;-58
2022/10/21 02:57:09;;;;;;;18.00;14.50;;;14.50;99.90;;;;;;5092949;28;20992;-58
2022/10/21 02:59:36;;;;;;;24.50;15.80;;;14.50;99.90;;;;;;5092576;28;20970;-58
2022/10/21 03:02:03;;;;;;;16.50;13.10;;;14.50;99.90;;;;;;5091074;28;20449;-58
2022/10/21 03:04:30;;;;;;;17.47;13.33;;;14.60;99.90;;;;;;5092460;28;20454;-58
2022/10/21 03:06:59;;;;;;;24.37;14.00;;;14.50;99.90;;;;;;5092868;28;20876;-58
2022/10/21 03:09:26;;;;;;;15.40;13.10;;;14.50;99.90;;;;;;5090291;28;21017;-58
2022/10/21 03:11:53;;;;;;;17.20;14.33;;;14.50;99.90;;;;;;5092937;28;20470;-58
2022/10/21 03:14:21;;;;;;;14.57;12.30;;;14.60;99.90;;;;;;5092566;28;20526;-58
2022/10/21 03:16:48;;;;;;;16.30;14.43;;;14.60;99.90;;;;;;5090492;28;20866;-58
2022/10/21 03:19:15;;;;;;;18.40;13.50;;;14.60;99.90;;;;;;5093086;28;20850;-58
2022/10/21 03:21:42;;;;;;;15.07;13.53;;;14.60;99.90;;;;;;5092120;28;21024;-58
2022/10/21 03:24:11;;;;;;;21.70;13.50;;;14.50;99.90;;;;;;5090813;28;20951;-57
2022/10/21 03:26:38;;;;;;;25.53;14.90;;;14.50;99.90;;;;;;5092676;28;20457;-57
2022/10/21 03:29:05;;;;;;;18.43;14.23;;;14.50;99.90;;;;;;5092062;28;20577;-57
2022/10/21 03:31:33;;;;;;;18.57;15.97;;;14.50;99.90;;;;;;5090458;28;21153;-58
2022/10/21 03:34:00;;;;;;;18.83;14.87;;;14.50;99.90;;;;;;5092874;28;20424;-57
2022/10/21 03:36:27;;;;;;;14.63;13.17;;;14.60;99.90;;;;;;5092528;28;20451;-58
2022/10/21 03:38:54;;;;;;;26.80;13.80;;;14.70;99.90;;;;;;5090540;28;20650;-58
2022/10/21 03:41:23;;;;;;;21.87;15.40;;;14.70;99.90;;;;;;5092555;28;20787;-58
2022/10/21 03:43:50;;;;;;;19.03;14.40;;;14.60;99.90;;;;;;5092108;28;20468;-58
2022/10/21 03:46:17;;;;;;;16.00;12.20;;;14.70;99.90;;;;;;5090224;28;20443;-58
2022/10/21 03:48:44;;;;;;;14.43;11.63;;;14.70;99.90;;;;;;5091783;28;20826;-57
2022/10/21 03:51:12;;;;;;;17.13;12.07;;;14.90;99.90;;;;;;5091933;28;20846;-58
2022/10/21 03:53:39;;;;;;;15.70;12.80;;;15.00;99.90;;;;;;5090127;28;20471;-58
2022/10/21 03:56:07;;;;;;;15.80;11.90;;;15.00;99.90;;;;;;5092508;28;20483;-58
2022/10/21 03:58:35;;;;;;;18.23;11.57;;;15.10;99.90;;;;;;5092500;28;20531;-58
2022/10/21 04:01:03;;;;;;;20.43;10.60;;;15.10;99.90;;;;;;5090398;28;20671;-58
2022/10/21 04:03:30;;;;;;;14.53;11.17;;;15.20;99.90;;;;;;5092071;28;20472;-58
2022/10/21 04:05:57;;;;;;;15.73;11.43;;;;;;;;;;5092569;28;20454;-57
2022/10/21 04:08:25;;;;;;;14.80;11.23;;;15.20;99.90;;;;;;5090037;28;20558;-57
2022/10/21 04:10:52;;;;;;;12.47;10.27;;;15.30;99.90;;;;;;5092012;28;20867;-57
2022/10/21 04:13:19;;;;;;;12.10;10.70;;;15.30;99.90;;;;;;5091700;28;20546;-58
2022/10/21 04:15:48;;;;;;;13.20;10.20;;;15.30;99.90;;;;;;5092711;28;20432;-58
2022/10/21 04:18:15;;;;;;;13.63;9.70;;;15.30;99.90;;;;;;5095979;28;20808;-58
2022/10/21 04:20:42;;;;;;;15.80;9.77;;;15.40;99.90;;;;;;5095989;28;20528;-58
2022/10/21 04:23:09;;;;;;;16.00;11.60;;;15.40;99.90;;;;;;5093148;28;20503;-57
2022/10/21 04:25:37;;;;;;;9.47;8.23;;;15.50;99.90;;;;;;5095766;28;20514;-58
2022/10/21 04:28:04;;;;;;;16.00;11.13;;;15.50;99.90;;;;;;5095981;28;20505;-58
2022/10/21 04:30:31;;;;;;;15.37;10.73;;;15.50;99.90;;;;;;5093541;28;20565;-58
2022/10/21 04:33:00;;;;;;;11.93;9.67;;;15.40;99.90;;;;;;5095465;28;20513;-58
2022/10/21 04:35:27;;;;;;;11.37;9.80;;;15.40;99.90;;;;;;5095827;28;20533;-58
2022/10/21 04:37:54;;;;;;;9.93;8.50;;;15.30;99.90;;;;;;5093350;28;20447;-58
2022/10/21 04:40:22;;;;;;;20.37;13.10;;;15.40;99.90;;;;;;5095216;28;20448;-58
2022/10/21 04:42:49;;;;;;;11.80;8.60;;;15.40;99.90;;;;;;5095571;28;20479;-58
2022/10/21 04:45:17;;;;;;;14.77;9.33;;;15.40;99.90;;;;;;5092694;28;20546;-58
2022/10/21 04:47:44;;;;;;;14.17;9.73;;;15.40;99.90;;;;;;5095282;28;20571;-58
2022/10/21 04:50:13;;;;;;;12.43;8.80;;;15.40;99.90;;;;;;5093410;28;20574;-57
2022/10/21 04:52:40;;;;;;;14.30;9.03;;;15.50;99.90;;;;;;5092530;28;20467;-58
2022/10/21 04:55:08;;;;;;;17.40;10.03;;;15.50;99.90;;;;;;5094943;28;20432;-58
2022/10/21 04:57:36;;;;;;;11.27;7.87;;;15.50;99.90;;;;;;5095031;28;20455;-58
2022/10/21 05:00:05;;;;;;;10.33;9.20;;;15.50;99.90;;;;;;5093021;28;20776;-58
2022/10/21 05:02:33;;;;;;;11.80;7.90;;;15.60;99.90;;;;;;5094815;28;20953;-58
2022/10/21 05:05:00;;;;;;;11.67;8.63;;;15.60;99.90;;;;;;5094821;28;20530;-58
2022/10/21 05:07:28;;;;;;;16.37;8.37;;;15.60;99.90;;;;;;5092715;28;20455;-58
2022/10/21 05:09:56;;;;;;;9.27;7.50;;;15.60;99.90;;;;;;5094494;28;20486;-58
2022/10/21 05:12:23;;;;;;;8.70;7.47;;;15.60;99.90;;;;;;5094243;28;20954;-58
2022/10/21 05:14:50;;;;;;;15.03;7.57;;;15.70;99.90;;;;;;5093559;28;20483;-58
2022/10/21 05:17:17;;;;;;;14.50;7.20;;;15.70;99.90;;;;;;5094390;28;20475;-59
2022/10/21 05:19:45;;;;;;;9.30;5.93;;;15.80;99.90;;;;;;5094087;28;20473;-58
2022/10/21 05:22:12;;;;;;;8.27;6.13;;;15.80;99.90;;;;;;5092659;28;20554;-58
2022/10/21 05:24:41;;;;;;;15.50;5.60;;;15.90;99.90;;;;;;5094226;28;20534;-58
2022/10/21 05:27:08;;;;;;;11.60;7.23;;;15.90;99.90;;;;;;5093585;28;20451;-58
2022/10/21 05:29:36;;;;;;;15.60;6.73;;;16.00;99.90;;;;;;5093197;28;20487;-57
2022/10/21 05:32:03;;;;;;;11.53;7.37;;;16.00;99.90;;;;;;5094306;28;20490;-57
2022/10/21 05:34:30;;;;;;;10.57;6.10;;;16.00;99.90;;;;;;5094142;28;20542;-57
2022/10/21 05:36:58;;;;;;;12.83;5.57;;;16.00;99.90;;;;;;5093537;28;20461;-57
2022/10/21 05:39:26;;;;;;;7.23;4.50;;;16.00;99.90;;;;;;5093509;28;20458;-57
2022/10/21 05:41:54;;;;;;;6.80;5.33;;;16.10;99.90;;;;;;5093605;28;20503;-58
2022/10/21 05:44:22;;;;;;;13.10;6.17;;;;;;;;;;5093114;28;20526;-57
2022/10/21 05:46:49;;;;;;;9.77;4.60;;;16.20;99.90;;;;;;5093421;28;20459;-57
2022/10/21 05:49:16;;;;;;;10.90;6.13;;;16.20;99.90;;;;;;5093439;28;20558;-57
2022/10/21 05:51:44;;;;;;;11.80;6.23;;;16.30;99.90;;;;;;5093109;28;21069;-57
2022/10/21 05:54:11;;;;;;;12.40;6.03;;;16.30;99.90;;;;;;5093058;28;20530;-57
2022/10/21 05:56:40;;;;;;;6.93;5.30;;;16.30;99.90;;;;;;5093556;28;20568;-57
2022/10/21 05:59:09;;;;;;;13.27;5.50;;;16.30;99.90;;;;;;5093778;28;20444;-57
2022/10/21 06:01:38;;;;;;;12.03;6.00;;;16.30;99.90;;;;;;5093020;28;20908;-57
2022/10/21 06:04:05;;;;;;;10.20;5.53;;;16.30;99.90;;;;;;5093145;28;20954;-57
2022/10/21 06:06:32;;;;;;;14.30;5.60;;;16.30;99.90;;;;;;5093496;28;20804;-57
2022/10/21 06:09:00;;;;;;;8.43;5.60;;;16.30;99.90;;;;;;5093131;28;20820;-57
2022/10/21 06:11:27;;;;;;;11.33;5.83;;;16.30;99.90;;;;;;5093192;28;20451;-57
2022/10/21 06:13:55;;;;;;;11.63;6.07;;;16.20;99.90;;;;;;5092911;28;20499;-57
2022/10/21 06:16:23;;;;;;;16.03;6.00;;;16.20;99.90;;;;;;5092450;28;20517;-57
2022/10/21 06:18:50;;;;;;;10.90;5.63;;;16.20;99.90;;;;;;5093245;28;20432;-57
2022/10/21 06:21:18;;;;;;;12.67;6.70;;;16.10;99.90;;;;;;5093588;28;20498;-57
2022/10/21 06:23:45;;;;;;;12.03;5.77;;;16.10;99.90;;;;;;5091012;28;21192;-57
2022/10/21 06:26:14;;;;;;;9.47;6.00;;;16.10;99.90;;;;;;5093160;28;20436;-57
2022/10/21 06:28:43;;;;;;;12.23;6.10;;;16.10;99.90;;;;;;5093062;28;20930;-57
2022/10/21 06:31:14;;;;;;;12.60;6.77;;;16.10;99.90;;;;;;5091291;28;20926;-57
2022/10/21 06:33:44;;;;;;;12.57;6.13;;;16.10;99.90;;;;;;5093324;28;20466;-56
2022/10/21 06:36:11;;;;;;;13.87;5.67;;;16.10;99.90;;;;;;5093020;28;20448;-57
2022/10/21 06:38:38;;;;;;;10.73;5.90;;;16.10;99.90;;;;;;5091062;28;20479;-57
2022/10/21 06:41:07;;;;;;;11.53;5.73;;;16.10;99.90;;;;;;5093195;28;20538;-57
2022/10/21 06:43:35;;;;;;;15.73;6.50;;;16.00;99.90;;;;;;5092527;28;20471;-57
2022/10/21 06:46:04;;;;;;;9.20;5.63;;;16.00;99.90;;;;;;5092511;28;20451;-57
2022/10/21 06:48:31;;;;;;;16.03;6.00;;;16.10;99.90;;;;;;5093139;28;20435;-57
2022/10/21 06:51:02;;;;;;;10.53;5.70;;;16.10;99.90;;;;;;5091843;28;20475;-57
2022/10/21 06:53:30;;;;;;;13.60;6.17;;;16.10;99.90;;;;;;5092467;28;20485;-57
2022/10/21 06:56:01;;;;;;;13.27;6.30;;;16.00;99.90;;;;;;5092511;28;20450;-57
2022/10/21 06:58:30;;;;;;;12.17;5.60;;;16.10;99.90;;;;;;5091043;28;20469;-57
2022/10/21 07:00:57;;;;;;;10.30;6.90;;;16.10;99.90;;;;;;5092828;28;20842;-57
2022/10/21 07:03:25;;;;;;;12.90;6.80;;;16.10;99.90;;;;;;5092504;28;20561;-57
2022/10/21 07:05:58;;;;;;;9.80;5.50;;;16.10;99.90;;;;;;5089903;28;20449;-57
2022/10/21 07:08:28;;;;;;;9.77;5.73;;;16.10;99.90;;;;;;5092896;28;20432;-56
2022/10/21 07:10:55;;;;;;;12.07;7.60;;;16.10;99.90;;;;;;5092588;28;20600;-56
2022/10/21 07:13:23;;;;;;;11.90;6.30;;;16.10;99.90;;;;;;5090509;28;20464;-57
2022/10/21 07:15:58;;;;;;;15.17;7.07;;;16.10;99.90;;;;;;5092765;28;20538;-57
2022/10/21 07:18:26;;;;;;;19.30;6.60;;;16.00;99.90;;;;;;5092478;28;20461;-57
2022/10/21 07:20:53;;;;;;;17.23;6.37;;;16.10;99.90;;;;;;5090277;28;21185;-57
2022/10/21 07:23:20;;;;;;;10.53;6.80;;;16.00;99.90;;;;;;5092052;28;20495;-58
2022/10/21 07:25:49;;;;;;;14.17;6.90;;;16.00;99.90;;;;;;5092222;28;20934;-57
2022/10/21 07:28:16;;;;;;;9.63;6.20;;;16.00;99.90;;;;;;5090788;28;20487;-57
2022/10/21 07:30:44;;;;;;;14.83;7.13;;;16.00;99.90;;;;;;5092228;28;21060;-56
2022/10/21 07:33:12;;;;;;;15.50;6.90;;;15.90;99.90;;;;;;5092018;28;20471;-57
2022/10/21 07:35:39;;;;;;;12.03;6.07;;;16.00;99.90;;;;;;5090117;28;20546;-57
2022/10/21 07:38:06;;;;;;;14.20;6.00;;;16.00;99.90;;;;;;5091570;28;20530;-57
2022/10/21 07:40:39;;;;;;;18.70;7.33;;;16.10;99.90;;;;;;5091693;28;20446;-57
2022/10/21 07:43:08;;;;;;;16.00;7.20;;;16.10;99.90;;;;;;5090486;28;20505;-57
2022/10/21 07:45:40;;;;;;;13.53;7.53;;;16.00;99.90;;;;;;5091962;28;20528;-57
2022/10/21 07:48:07;;;;;;;10.43;6.33;;;16.00;99.90;;;;;;5092281;28;20462;-56
2022/10/21 07:50:35;;;;;;;12.93;6.67;;;16.10;99.90;;;;;;5092348;28;20772;-56
2022/10/21 07:53:02;;;;;;;16.37;7.40;;;16.10;99.90;;;;;;5095527;28;20467;-56
2022/10/21 07:55:30;;;;;;;10.03;6.90;;;16.10;99.90;;;;;;5096037;28;20453;-56
2022/10/21 07:57:57;;;;;;;20.97;7.20;;;16.20;99.90;;;;;;5092798;28;20549;-57
2022/10/21 08:00:25;;;;;;;14.77;6.60;;;16.10;99.90;;;;;;5095088;28;20531;-57
2022/10/21 08:02:55;;;;;;;13.90;7.67;;;16.10;99.90;;;;;;5095418;28;20489;-57
2022/10/21 08:05:22;;;;;;;12.40;7.27;;;16.10;99.90;;;;;;5092902;28;20451;-57
2022/10/21 08:07:50;;;;;;;12.27;6.57;;;16.10;99.90;;;;;;5095828;28;20588;-57
2022/10/21 08:10:17;;;;;;;10.13;5.77;;;16.10;99.90;;;;;;5095699;28;20507;-57
2022/10/21 08:12:44;;;;;;;11.03;5.73;;;16.10;99.90;;;;;;5093413;28;20690;-57
2022/10/21 08:15:12;;;;;;;14.40;7.50;;;16.20;99.90;;;;;;5095764;28;20587;-57
2022/10/21 08:17:40;;;;;;;9.80;6.83;;;16.30;99.90;;;;;;5095619;28;20562;-56
2022/10/21 08:20:08;;;;;;;15.13;5.87;;;16.20;99.90;;;;;;5093698;28;21185;-57
2022/10/21 08:22:36;;;;;;;8.53;5.80;;;16.20;99.90;;;;;;5095585;28;20495;-56
2022/10/21 08:25:03;;;;;;;13.50;6.80;;;16.20;99.90;;;;;;5095936;28;20451;-57
2022/10/21 08:27:30;;;;;;;9.17;5.70;;;16.20;99.90;;;;;;5093294;28;20979;-56
2022/10/21 08:29:57;;;;;;;12.93;6.97;;;16.20;99.90;;;;;;5095420;28;20482;-57
2022/10/21 08:32:24;;;;;;;7.83;5.13;;;16.20;99.90;;;;;;5095322;28;20463;-57
2022/10/21 08:34:53;;;;;;;9.90;6.17;;;16.10;99.90;;;;;;5092549;28;20782;-57
2022/10/21 08:37:20;;;;;;;15.40;6.93;;;16.20;99.90;;;;;;5095370;28;20477;-57
2022/10/21 08:39:47;;;;;;;17.37;6.50;;;16.30;99.90;;;;;;5094317;28;20466;-57
2022/10/21 08:42:17;;;;;;;9.47;7.40;;;16.20;99.90;;;;;;5092166;28;20623;-56
2022/10/21 08:44:54;;;;;;;12.40;6.03;;;16.30;99.90;;;;;;5094520;28;20448;-56
2022/10/21 08:47:31;;;;;;;10.23;6.67;;;16.20;99.90;;;;;;5095155;28;20469;-56
2022/10/21 08:50:02;;;;;;;15.60;6.83;;;16.30;99.90;;;;;;5092211;28;20487;-57
2022/10/21 08:52:38;;;;;;;13.30;6.60;;;16.20;99.90;;;;;;5094467;28;20494;-56
2022/10/21 08:55:10;;;;;;;13.80;8.13;;;16.20;99.90;;;;;;5093866;28;20917;-57
2022/10/21 08:57:37;;;;;;;20.13;7.90;;;16.20;99.90;;;;;;5092296;28;20507;-57
2022/10/21 09:00:14;;;;;;;11.87;7.80;;;16.20;99.90;;;;;;5094846;28;20448;-58
2022/10/21 09:03:01;;;;;;;8.60;6.80;;;16.10;99.90;;;;;;5094013;28;20471;-57
2022/10/21 09:05:41;;;;;;;12.13;7.17;;;16.10;99.90;;;;;;5092350;28;20906;-57
2022/10/21 09:08:18;;;;;;;10.33;6.67;;;16.00;99.90;;;;;;5094579;28;20463;-57
2022/10/21 09:10:58;;;;;;;11.83;7.40;;;16.00;99.90;;;;;;5093667;28;20499;-56
2022/10/21 09:13:49;;;;;;;11.17;6.50;;;16.00;99.90;;;;;;5092346;28;20567;-56
2022/10/21 09:16:23;;;;;;;15.10;6.97;;;16.10;99.90;;;;;;5093862;28;20498;-56
2022/10/21 09:19:01;;;;;;;15.03;6.67;;;16.20;99.90;;;;;;5094422;28;20518;-56
2022/10/21 09:21:39;;;;;;;17.17;7.53;;;16.30;99.90;;;;;;5094849;28;20424;-56
2022/10/21 09:24:10;;;;;;;15.40;6.80;;;16.30;99.90;;;;;;5094180;28;20424;-56
2022/10/21 09:26:40;;;;;;;8.57;6.57;;;16.40;99.90;;;;;;5092168;28;20432;-57
2022/10/21 09:29:23;;;;;;;11.37;6.20;;;16.40;99.90;;;;;;5094159;28;20432;-56
2022/10/21 09:31:50;;;;;;;11.53;6.03;;;16.50;99.90;;;;;;5093825;28;20466;-55
2022/10/21 09:34:29;;;;;;;11.33;5.50;;;16.50;99.90;;;;;;5091910;28;20457;-56
2022/10/21 09:36:59;;;;;;;14.37;7.30;;;16.70;99.90;;;;;;5094244;28;20474;-56
2022/10/21 09:39:40;;;;;;;8.73;5.00;;;16.80;99.90;;;;;;5093841;28;20447;-56
2022/10/21 09:42:12;;;;;;;9.43;5.60;;;16.70;99.90;;;;;;5092174;28;20459;-58
2022/10/21 09:44:40;;;;;;;8.13;5.30;;;16.90;99.90;;;;;;5093740;28;20925;-57
2022/10/21 09:47:19;;;;;;;7.30;3.77;;;16.90;99.90;;;;;;5093683;28;20931;-57
2022/10/21 09:49:49;;;;;;;8.80;3.93;;;16.90;99.90;;;;;;5091452;28;20495;-57
2022/10/21 09:52:21;;;;;;;4.57;3.30;;;16.80;99.90;;;;;;5093008;28;20866;-57
2022/10/21 09:54:49;;;;;;;5.10;3.23;;;16.90;99.90;;;;;;5093812;28;20424;-58
2022/10/21 09:57:20;;;;;;;8.47;3.97;;;;;;;;;;5091959;28;20964;-58
2022/10/21 09:59:52;;;;;;;7.33;3.33;;;17.00;99.90;;;;;;5093361;28;20432;-57
2022/10/21 10:02:27;;;;;;;3.30;2.97;;;17.10;99.90;;;;;;5093347;28;20507;-57
2022/10/21 10:04:54;;;;;;;8.07;3.13;;;17.20;99.90;;;;;;5091420;28;20423;-57
2022/10/21 10:07:30;;;;;;;6.37;3.13;;;17.20;99.90;;;;;;5093431;28;21005;-57
2022/10/21 10:09:57;;;;;;;5.47;3.27;;;17.30;99.90;;;;;;5093894;28;20568;-57
2022/10/21 10:12:27;;;;;;;4.67;2.90;;;17.30;99.90;;;;;;5091446;28;20468;-57
2022/10/21 10:14:54;;;;;;;4.87;3.07;;;17.50;99.90;;;;;;5093025;28;20530;-57
2022/10/21 10:17:27;;;;;;;5.47;2.93;;;17.50;99.90;;;;;;5093509;28;20768;-57
2022/10/21 10:20:13;;;;;;;8.10;3.93;;;17.60;99.90;;;;;;5091303;28;20521;-57
2022/10/21 10:22:44;;;;;;;5.83;2.93;;;17.60;99.90;;;;;;5093334;28;20551;-57
2022/10/21 10:25:22;;;;;;;7.53;3.33;;;17.50;99.90;;;;;;5092986;28;20515;-58
2022/10/21 10:27:53;;;;;;;7.40;3.40;;;17.50;99.90;;;;;;5090975;28;20466;-57
2022/10/21 10:30:22;;;;;;;9.63;4.33;;;17.40;99.90;;;;;;5092732;28;20463;-57
2022/10/21 10:32:51;;;;;;;5.23;3.37;;;17.50;99.90;;;;;;5093392;28;20503;-57
2022/10/21 10:35:26;;;;;;;5.93;3.23;;;17.40;99.90;;;;;;5090921;28;20443;-57
2022/10/21 10:37:57;;;;;;;6.87;3.73;;;17.40;99.90;;;;;;5092698;28;20438;-57
2022/10/21 10:40:30;;;;;;;7.87;3.47;;;17.40;99.90;;;;;;5091935;28;20427;-57
2022/10/21 10:43:03;;;;;;;6.70;3.70;;;17.40;99.90;;;;;;5092432;28;21159;-57
2022/10/21 10:45:30;;;;;;;5.10;3.70;;;17.50;99.90;;;;;;5092767;28;20506;-57
2022/10/21 10:48:02;;;;;;;5.00;3.43;;;17.50;99.90;;;;;;5091004;28;20463;-57
2022/10/21 10:50:47;;;;;;;5.10;3.00;;;17.50;99.90;;;;;;5091715;28;20491;-57
2022/10/21 10:53:29;;;;;;;8.40;3.40;;;17.40;99.90;;;;;;5092566;28;20550;-57
2022/10/21 10:56:03;;;;;;;7.57;3.50;;;17.40;99.90;;;;;;5090751;28;20890;-57
2022/10/21 10:58:34;;;;;;;8.53;3.80;;;17.50;99.90;;;;;;5092807;28;20463;-57
2022/10/21 11:01:08;;;;;;;5.07;4.13;;;17.50;99.90;;;;;;5092705;28;20507;-57
2022/10/21 11:03:41;;;;;;;5.27;3.30;;;17.50;99.90;;;;;;5089561;28;20463;-57
2022/10/21 11:06:15;;;;;;;8.80;3.30;;;17.60;99.90;;;;;;5092278;28;20432;-56
2022/10/21 11:08:48;;;;;;;5.00;3.37;;;17.70;99.90;;;;;;5092601;28;20500;-56
2022/10/21 11:11:23;;;;;;;5.30;3.30;;;17.70;99.90;;;;;;5090414;28;20966;-57
2022/10/21 11:13:51;;;;;;;7.37;3.50;;;17.70;99.90;;;;;;5092408;28;20463;-57
2022/10/21 11:16:40;;;;;;;3.60;3.20;;;17.80;99.90;;;;;;5091950;28;20479;-57
2022/10/21 11:19:15;;;;;;;4.90;4.20;;;17.90;99.90;;;;;;5090163;28;20777;-57
2022/10/21 11:21:48;;;;;;;9.97;2.70;;;18.10;99.90;;;;;;5092295;28;20422;-57
2022/10/21 11:24:21;;;;;;;8.33;5.20;;;;;;;;;;5092656;28;20434;-57
2022/10/21 11:26:57;;;;;;;3.87;2.93;;;18.30;99.90;;;;;;5094563;28;20419;-58
2022/10/21 11:29:33;;;;;;;9.27;2.90;;;18.40;99.90;;;;;;5096281;28;20438;-57
2022/10/21 11:32:11;;;;;;;7.87;3.93;;;18.60;99.90;;;;;;5096168;28;20478;-57
2022/10/21 11:34:59;;;;;;;4.27;2.70;;;18.50;99.90;;;;;;5095827;28;20977;-57
2022/10/21 11:37:43;;;;;;;9.00;3.20;;;18.60;99.90;;;;;;5097031;28;20435;-57
2022/10/21 11:40:19;;;;;;;3.50;2.37;;;18.60;99.90;;;;;;5094291;28;20424;-58
2022/10/21 11:42:51;;;;;;;6.57;2.40;;;18.70;99.90;;;;;;5096130;28;20498;-58
2022/10/21 11:45:33;;;;;;;4.33;2.37;;;18.70;99.90;;;;;;5095130;28;20510;-58
2022/10/21 11:48:07;;;;;;;6.33;2.67;;;18.80;99.90;;;;;;5093343;28;20451;-58
2022/10/21 11:50:41;;;;;;;3.90;1.90;;;18.90;99.90;;;;;;5092429;28;20591;-60
2022/10/21 11:53:22;;;;;;;5.10;2.10;;;19.00;99.90;;;;;;5094161;28;20528;-58
2022/10/21 11:56:02;;;;;;;3.77;2.07;;;18.90;99.90;;;;;;5091237;28;20428;-57
2022/10/21 11:58:39;;;;;;;3.97;1.93;;;18.70;99.90;;;;;;5089746;28;20453;-59
2022/10/21 12:01:22;;;;;;;3.47;2.20;;;18.60;99.90;;;;;;5081148;28;20474;-59
2022/10/21 12:04:08;;;;;;;2.10;1.90;;;18.70;99.90;;;;;;5084486;28;20475;-57
2022/10/21 12:06:42;;;;;;;3.07;2.00;;;18.70;99.90;;;;;;5083288;28;20448;-61
2022/10/21 12:09:16;;;;;;;4.03;1.90;;;18.50;99.90;;;;;;5072266;28;20456;-57
2022/10/21 12:11:50;;;;;;;3.73;2.20;;;18.40;99.90;;;;;;5075483;28;20475;-57
2022/10/21 12:14:27;;;;;;;3.00;1.90;;;18.50;99.90;;;;;;5079452;28;20461;-59
2022/10/21 12:16:58;;;;;;;9.93;2.20;;;18.50;99.90;;;;;;5084088;28;20463;-57
2022/10/21 12:19:26;;;;;;;2.53;1.80;;;18.30;99.90;;;;;;5091626;28;20961;-56
2022/10/21 12:21:53;;;;;;;3.77;2.30;;;18.40;99.90;;;;;;5074876;28;20475;-55
2022/10/21 12:24:35;;;;;;;3.20;1.90;;;18.40;99.90;;;;;;5075001;28;20881;-55
2022/10/21 12:27:10;;;;;;;2.30;1.80;;;18.40;99.90;;;;;;5074735;28;20456;-58
2022/10/21 12:29:49;;;;;;;6.23;1.90;;;18.30;99.90;;;;;;5088748;28;20554;-57
2022/10/21 12:32:22;;;;;;;3.57;2.57;;;18.40;99.90;;;;;;5087362;28;20490;-60
2022/10/21 12:34:52;;;;;;;2.80;1.90;;;18.30;99.90;;;;;;5085362;28;20463;-57
2022/10/21 12:37:46;;;;;;;4.87;2.00;;;18.30;99.90;;;;;;5099067;28;20468;-57
2022/10/21 12:40:16;;;;;;;3.90;2.60;;;18.30;99.90;;;;;;5082493;28;20435;-58
2022/10/21 12:42:58;;;;;;;2.17;1.70;;;18.30;99.90;;;;;;5085146;28;21052;-58
2022/10/21 12:45:28;;;;;;;5.10;1.90;;;18.20;99.90;;;;;;5086934;28;20517;-56
2022/10/21 12:47:58;;;;;;;2.73;2.40;;;18.10;99.90;;;;;;5079879;28;20487;-57
2022/10/21 12:50:29;;;;;;;5.70;3.90;;;18.10;99.90;;;;;;5082952;28;20487;-58
2022/10/21 12:53:19;;;;;;;7.50;5.60;;;18.10;99.90;;;;;;5091454;28;20486;-58
2022/10/21 12:55:51;;;;;;;7.73;2.90;;;18.10;99.90;;;;;;5086437;28;20534;-58
2022/10/21 12:58:31;;;;;;;3.27;2.00;;;18.00;99.90;;;;;;5088569;28;20787;-55